createdAt,value
2022-10-31T00:02:15.784Z,96559.47
2022-10-31T00:04:01.957Z,96552.56
2022-10-31T00:05:53.542Z,96558.81
2022-10-31T00:07:18.039Z,96551.94
2022-10-31T00:09:13.815Z,96558.81
2022-10-31T00:10:43.985Z,96556.81
2022-10-31T00:12:26.534Z,96551.88
2022-10-31T00:14:05.426Z,96558.97
2022-10-31T00:15:29.598Z,96560.06
2022-10-31T00:17:22.413Z,96559.34
2022-10-31T00:18:45.613Z,96566.31
2022-10-31T00:20:04.615Z,96567.19
2022-10-31T00:22:57.963Z,96562.72
2022-10-31T00:24:27.118Z,96563.53
2022-10-31T00:26:20.194Z,96566.09
2022-10-31T00:28:07.977Z,96567.78
2022-10-31T00:30:10.702Z,96562.72
2022-10-31T00:31:34.849Z,96560.31
2022-10-31T00:33:30.468Z,96566.31
2022-10-31T00:34:40.195Z,96566.31
2022-10-31T00:35:52.488Z,96562.97
2022-10-31T00:37:20.048Z,96570.84
2022-10-31T00:38:39.704Z,96568.38
2022-10-31T00:39:59.373Z,96566.69
2022-10-31T00:41:24.727Z,96566.81
2022-10-31T00:42:59.238Z,96571.88
2022-10-31T00:44:27.894Z,96570.31
2022-10-31T00:46:13.296Z,96568.63
2022-10-31T00:47:59.938Z,96572.13
2022-10-31T00:49:34.359Z,96573.78
2022-10-31T00:50:52.312Z,96567.81
2022-10-31T00:52:29.960Z,96575.59
2022-10-31T00:54:19.174Z,96570.53
2022-10-31T00:56:04.817Z,96575.72
2022-10-31T00:57:39.637Z,96580.88
2022-10-31T01:00:40.346Z,96570.41
2022-10-31T01:01:59.997Z,96568.75
2022-10-31T01:03:16.473Z,96572.97
2022-10-31T01:04:41.568Z,96571.34
2022-10-31T01:06:00.567Z,96567.91
2022-10-31T01:07:43.187Z,96558.38
2022-10-31T01:09:17.950Z,96557.59
2022-10-31T01:11:04.750Z,96549.84
2022-10-31T01:12:21.293Z,96561.88
2022-10-31T01:13:45.109Z,96556.72
2022-10-31T01:15:16.258Z,96553.28
2022-10-31T01:16:53.963Z,96559.34
2022-10-31T01:18:06.397Z,96552.41
2022-10-31T01:19:37.231Z,96545.56
2022-10-31T01:21:14.222Z,96551.66
2022-10-31T01:22:47.179Z,96551.66
2022-10-31T01:24:19.186Z,96549.94
2022-10-31T01:25:38.550Z,96552.38
2022-10-31T01:27:22.573Z,96555.00
2022-10-31T01:29:03.766Z,96542.28
2022-10-31T01:30:54.105Z,96549.19
2022-10-31T01:32:34.300Z,96555.00
2022-10-31T01:34:46.338Z,96547.31
2022-10-31T01:38:17.633Z,96550.44
2022-10-31T01:40:00.657Z,96542.84
2022-10-31T01:41:50.686Z,96548.13
2022-10-31T01:43:15.184Z,96552.53
2022-10-31T01:44:47.666Z,96547.41
2022-10-31T01:48:14.255Z,96542.50
2022-10-31T01:49:35.281Z,96540.78
2022-10-31T01:51:08.883Z,96539.06
2022-10-31T01:52:43.082Z,96539.16
2022-10-31T01:57:33.285Z,96537.75
2022-10-31T01:58:40.411Z,96527.41
2022-10-31T02:02:43.115Z,96531.75
2022-10-31T02:04:15.325Z,96529.13
2022-10-31T02:05:39.618Z,96533.38
2022-10-31T02:07:06.454Z,96528.22
2022-10-31T02:08:35.742Z,96533.38
2022-10-31T02:09:54.781Z,96541.03
2022-10-31T02:11:23.395Z,96535.94
2022-10-31T02:12:45.125Z,96545.41
2022-10-31T02:14:30.324Z,96535.97
2022-10-31T02:15:52.167Z,96537.75
2022-10-31T02:19:28.209Z,96534.50
2022-10-31T02:20:46.245Z,96534.44
2022-10-31T02:22:25.515Z,96532.66
2022-10-31T02:24:21.703Z,96534.41
2022-10-31T02:26:19.978Z,96528.25
2022-10-31T02:30:17.593Z,96530.19
2022-10-31T02:33:01.983Z,96530.19
2022-10-31T02:34:07.662Z,96531.06
2022-10-31T02:35:26.765Z,96533.66
2022-10-31T02:38:57.318Z,96534.41
2022-10-31T02:41:06.356Z,96543.00
2022-10-31T02:42:44.772Z,96528.31
2022-10-31T02:44:27.736Z,96532.69
2022-10-31T02:46:37.836Z,96526.81
2022-10-31T02:48:32.525Z,96523.44
2022-10-31T02:50:03.606Z,96530.34
2022-10-31T02:51:31.240Z,96525.28
2022-10-31T02:53:17.406Z,96533.06
2022-10-31T02:55:23.435Z,96526.94
2022-10-31T02:56:58.641Z,96536.31
2022-10-31T02:58:29.695Z,96531.16
2022-10-31T02:59:45.888Z,96527.78
2022-10-31T03:01:20.280Z,96529.56
2022-10-31T03:03:20.466Z,96527.16
2022-10-31T03:05:27.804Z,96530.03
2022-10-31T03:07:04.957Z,96524.91
2022-10-31T03:08:40.468Z,96527.56
2022-10-31T03:10:15.867Z,96523.25
2022-10-31T03:14:05.520Z,96531.81
2022-10-31T03:16:12.407Z,96528.41
2022-10-31T03:17:28.879Z,96529.00
2022-10-31T03:18:55.057Z,96530.69
2022-10-31T03:20:32.862Z,96536.75
2022-10-31T03:22:08.433Z,96528.13
2022-10-31T03:23:33.913Z,96536.75
2022-10-31T03:27:24.425Z,96527.22
2022-10-31T03:29:04.546Z,96529.06
2022-10-31T03:30:53.194Z,96528.34
2022-10-31T03:34:32.024Z,96531.94
2022-10-31T03:36:05.310Z,96524.16
2022-10-31T03:37:52.826Z,96528.44
2022-10-31T03:39:33.491Z,96525.09
2022-10-31T03:41:06.529Z,96525.91
2022-10-31T03:42:18.869Z,96526.88
2022-10-31T03:43:56.714Z,96531.09
2022-10-31T03:45:32.563Z,96523.38
2022-10-31T03:46:47.716Z,96525.09
2022-10-31T03:48:07.843Z,96514.84
2022-10-31T03:49:25.625Z,96524.28
2022-10-31T03:51:22.475Z,96525.31
2022-10-31T03:53:05.890Z,96523.59
2022-10-31T03:54:39.791Z,96522.78
2022-10-31T03:56:22.051Z,96517.59
2022-10-31T03:58:14.346Z,96520.19
2022-10-31T03:59:32.965Z,96518.44
2022-10-31T04:00:40.762Z,96521.81
2022-10-31T04:02:21.422Z,96518.41
2022-10-31T04:03:43.425Z,96519.97
2022-10-31T04:05:05.600Z,96515.59
2022-10-31T04:06:24.907Z,96527.44
2022-10-31T04:10:15.212Z,96519.44
2022-10-31T04:11:56.140Z,96519.41
2022-10-31T04:13:12.791Z,96521.88
2022-10-31T04:14:44.283Z,96519.09
2022-10-31T04:16:05.332Z,96526.09
2022-10-31T04:17:48.954Z,96514.00
2022-10-31T04:19:07.094Z,96509.72
2022-10-31T04:20:42.425Z,96512.25
2022-10-31T04:22:34.081Z,96505.41
2022-10-31T04:24:15.866Z,96508.94
